createdAt,value
2023-05-05T00:00:00.259Z,9.934
2023-05-05T00:01:00.691Z,9.913
2023-05-05T00:02:01.094Z,9.891
2023-05-05T00:03:00.396Z,9.886
2023-05-05T00:04:01.166Z,9.806
2023-05-05T00:05:00.534Z,9.798
2023-05-05T00:06:00.723Z,9.776
2023-05-05T00:07:00.811Z,9.784
2023-05-05T00:08:01.068Z,9.782
2023-05-05T00:10:00.319Z,9.734
2023-05-05T00:11:00.491Z,9.747
2023-05-05T00:12:00.704Z,9.696
2023-05-05T00:13:00.923Z,9.704
2023-05-05T00:14:01.106Z,9.696
2023-05-05T00:15:00.253Z,9.699
2023-05-05T00:16:00.422Z,9.656
2023-05-05T00:17:00.626Z,9.598
2023-05-05T00:18:01.172Z,9.688
2023-05-05T00:19:00.437Z,9.670
2023-05-05T00:20:00.617Z,9.646
2023-05-05T00:21:00.813Z,9.582
2023-05-05T00:22:00.984Z,9.592
2023-05-05T00:23:00.136Z,9.640
2023-05-05T00:24:00.284Z,9.630
2023-05-05T00:25:00.507Z,9.627
2023-05-05T00:26:00.644Z,9.638
2023-05-05T00:27:00.809Z,9.678
2023-05-05T00:28:00.940Z,9.664
2023-05-05T00:29:00.194Z,9.584
2023-05-05T00:30:00.320Z,9.584
2023-05-05T00:31:00.523Z,9.592
2023-05-05T00:32:01.046Z,9.622
2023-05-05T00:33:00.207Z,9.592
2023-05-05T00:34:00.676Z,9.595
2023-05-05T00:35:00.787Z,9.619
2023-05-05T00:36:01.006Z,9.614
2023-05-05T00:37:00.201Z,9.630
2023-05-05T00:38:00.457Z,9.619
2023-05-05T00:39:00.652Z,9.600
2023-05-05T00:40:00.856Z,9.614
2023-05-05T00:41:00.278Z,9.555
2023-05-05T00:42:00.492Z,9.587
2023-05-05T00:43:00.813Z,9.646
2023-05-05T00:44:00.969Z,9.555
2023-05-05T00:45:01.122Z,9.600
2023-05-05T00:46:00.250Z,9.606
2023-05-05T00:47:00.712Z,9.619
2023-05-05T00:48:01.038Z,9.691
2023-05-05T00:50:01.009Z,9.691
2023-05-05T00:51:00.244Z,9.678
2023-05-05T00:52:00.435Z,9.680
2023-05-05T00:53:00.569Z,9.662
2023-05-05T00:54:00.757Z,9.643
2023-05-05T00:55:00.902Z,9.662
2023-05-05T00:56:00.122Z,9.662
2023-05-05T00:57:00.505Z,9.694
2023-05-05T00:58:00.608Z,9.747
2023-05-05T00:59:00.824Z,9.771
2023-05-05T01:00:01.139Z,9.726
2023-05-05T01:01:00.348Z,9.784
2023-05-05T01:02:00.758Z,9.704
2023-05-05T01:05:00.480Z,9.755
2023-05-05T01:06:00.684Z,9.760
2023-05-05T01:07:00.959Z,9.795
2023-05-05T01:08:01.100Z,9.883
2023-05-05T01:09:00.224Z,9.873
2023-05-05T01:10:11.360Z,9.921
2023-05-05T01:11:00.906Z,9.870
2023-05-05T01:12:01.024Z,9.867
2023-05-05T01:13:00.315Z,9.811
2023-05-05T01:14:00.581Z,9.787
2023-05-05T01:15:00.705Z,9.784
2023-05-05T01:16:00.832Z,9.833
2023-05-05T01:18:00.733Z,9.811
2023-05-05T01:19:00.935Z,9.766
2023-05-05T01:20:01.112Z,9.763
2023-05-05T01:21:00.308Z,9.726
2023-05-05T01:22:00.503Z,9.715
2023-05-05T01:23:00.669Z,9.715
2023-05-05T01:24:00.858Z,9.587
2023-05-05T01:25:01.017Z,9.563
2023-05-05T01:26:01.136Z,9.456
2023-05-05T01:27:00.319Z,9.325
2023-05-05T01:28:00.434Z,9.221
2023-05-05T01:29:00.781Z,9.226
2023-05-05T01:30:01.026Z,9.141
2023-05-05T01:31:00.223Z,9.058
2023-05-05T01:32:00.578Z,9.007
2023-05-05T01:33:00.948Z,8.861
2023-05-05T01:34:01.039Z,8.820
2023-05-05T01:36:00.396Z,8.690
2023-05-05T01:37:00.544Z,8.738
2023-05-05T01:38:00.827Z,8.754
2023-05-05T01:39:00.136Z,8.820
2023-05-05T01:40:00.332Z,8.898
2023-05-05T01:41:00.588Z,9.010
2023-05-05T01:42:00.780Z,9.010
2023-05-05T01:43:01.035Z,9.085
2023-05-05T01:44:00.228Z,9.170
2023-05-05T01:45:00.360Z,9.269
2023-05-05T01:46:00.708Z,9.333
2023-05-05T01:47:00.231Z,9.405
2023-05-05T01:48:00.375Z,9.445
2023-05-05T01:49:00.724Z,9.595
2023-05-05T01:50:00.902Z,9.622
2023-05-05T01:51:00.216Z,9.598
2023-05-05T01:52:00.356Z,9.638
2023-05-05T01:53:00.636Z,9.672
2023-05-05T01:54:00.792Z,9.648
2023-05-05T01:55:00.947Z,9.672
2023-05-05T01:56:00.129Z,9.784
2023-05-05T01:57:00.390Z,9.795
2023-05-05T01:58:00.652Z,9.843
2023-05-05T01:59:00.777Z,9.883
2023-05-05T02:00:01.163Z,9.939
2023-05-05T02:02:00.806Z,9.870
2023-05-05T02:03:00.184Z,9.982
2023-05-05T02:04:00.607Z,10.014
2023-05-05T02:05:00.739Z,10.027
2023-05-05T02:06:00.959Z,10.043
2023-05-05T02:07:00.121Z,10.084
2023-05-05T02:08:00.260Z,10.108
2023-05-05T02:09:00.431Z,10.092
2023-05-05T02:10:00.552Z,10.081
2023-05-05T02:11:00.732Z,10.019
2023-05-05T02:12:00.895Z,10.129
2023-05-05T02:13:01.113Z,10.222
2023-05-05T02:15:00.376Z,10.126
2023-05-05T02:16:00.744Z,10.132
2023-05-05T02:17:00.278Z,10.148
2023-05-05T02:18:00.535Z,10.126
2023-05-05T02:19:00.759Z,10.076
2023-05-05T02:20:00.864Z,10.084
2023-05-05T02:21:00.972Z,10.025
2023-05-05T02:22:00.195Z,10.009
2023-05-05T02:23:00.304Z,9.950
2023-05-05T02:24:00.513Z,9.950
2023-05-05T02:25:00.829Z,9.937
2023-05-05T02:26:01.016Z,9.899
2023-05-05T02:27:00.224Z,9.849
2023-05-05T02:28:00.308Z,9.846
2023-05-05T02:29:00.481Z,9.878
2023-05-05T02:30:00.563Z,9.937
2023-05-05T02:31:00.903Z,9.955
2023-05-05T02:32:00.287Z,9.990
2023-05-05T02:33:00.649Z,9.950
2023-05-05T02:34:00.936Z,9.947
2023-05-05T02:35:01.101Z,9.971
2023-05-05T02:36:00.246Z,9.934
2023-05-05T02:37:00.381Z,9.966
2023-05-05T02:38:00.605Z,9.929
2023-05-05T02:39:00.735Z,9.926
2023-05-05T02:40:00.995Z,9.950
2023-05-05T02:41:01.147Z,9.982
2023-05-05T02:43:00.563Z,9.929
2023-05-05T02:44:00.999Z,9.961
2023-05-05T02:45:00.227Z,9.926
2023-05-05T02:46:00.381Z,9.947
2023-05-05T02:47:00.763Z,9.923
2023-05-05T02:48:00.939Z,9.963
2023-05-05T02:49:00.139Z,9.958
2023-05-05T02:50:00.171Z,9.937
2023-05-05T02:51:00.400Z,9.945
2023-05-05T02:52:00.596Z,9.953
2023-05-05T02:53:00.753Z,9.955
2023-05-05T02:54:00.893Z,9.953
2023-05-05T02:55:01.107Z,9.923
2023-05-05T02:56:00.254Z,9.897
2023-05-05T02:57:00.384Z,9.817
2023-05-05T02:58:00.585Z,9.790
2023-05-05T02:59:00.877Z,9.830
2023-05-05T03:00:00.123Z,9.768
2023-05-05T03:01:00.320Z,9.784
2023-05-05T03:02:00.746Z,9.710
2023-05-05T03:03:01.166Z,9.742
2023-05-05T03:04:00.763Z,9.694
2023-05-05T03:05:01.085Z,9.670
2023-05-05T03:06:00.387Z,9.702
2023-05-05T03:07:00.559Z,9.667
2023-05-05T03:08:00.766Z,9.600
2023-05-05T03:09:00.987Z,9.590
2023-05-05T03:10:00.162Z,9.622
2023-05-05T03:11:00.655Z,9.619
2023-05-05T03:12:00.803Z,9.616
2023-05-05T03:13:01.102Z,9.560
2023-05-05T03:14:00.282Z,9.547
2023-05-05T03:15:00.443Z,9.517
2023-05-05T03:16:00.687Z,9.528
2023-05-05T03:17:01.188Z,9.517
2023-05-05T03:18:00.382Z,9.517
2023-05-05T03:19:00.709Z,9.493
2023-05-05T03:20:03.006Z,9.421
2023-05-05T03:21:00.814Z,9.411
2023-05-05T03:22:01.000Z,9.400
2023-05-05T03:23:01.090Z,9.389
2023-05-05T03:24:00.312Z,9.368
2023-05-05T03:25:00.483Z,9.333
2023-05-05T03:26:00.801Z,9.290
2023-05-05T03:27:00.304Z,9.277
2023-05-05T03:28:00.442Z,9.269
2023-05-05T03:29:00.590Z,9.258
2023-05-05T03:30:00.817Z,9.226
2023-05-05T03:31:01.054Z,9.176
2023-05-05T03:32:00.343Z,9.130
2023-05-05T03:33:00.863Z,9.101
2023-05-05T03:34:01.112Z,9.104
2023-05-05T03:35:00.280Z,9.079
2023-05-05T03:36:00.495Z,9.085
2023-05-05T03:37:00.592Z,9.063
2023-05-05T03:38:00.717Z,9.063
2023-05-05T03:39:00.918Z,9.018
2023-05-05T03:40:00.163Z,8.999
2023-05-05T03:41:02.107Z,8.983
2023-05-05T03:42:00.248Z,8.983
2023-05-05T03:43:00.360Z,8.935
2023-05-05T03:44:00.564Z,8.946
2023-05-05T03:45:00.747Z,8.943
2023-05-05T03:46:00.948Z,8.938
2023-05-05T03:48:00.654Z,8.911
2023-05-05T03:49:00.920Z,8.922
2023-05-05T03:50:00.506Z,8.874
2023-05-05T03:51:00.794Z,8.845
2023-05-05T03:52:01.029Z,8.826
2023-05-05T03:53:00.209Z,8.796
2023-05-05T03:54:00.366Z,8.698
2023-05-05T03:55:00.578Z,8.679
2023-05-05T03:56:00.784Z,8.759
2023-05-05T03:57:00.956Z,8.796
2023-05-05T03:58:01.145Z,8.759
2023-05-05T03:59:00.283Z,8.730
2023-05-05T04:00:00.479Z,8.786
2023-05-05T04:01:00.936Z,8.935
2023-05-05T04:02:00.236Z,8.935
2023-05-05T04:03:00.247Z,8.887
2023-05-05T04:04:00.814Z,8.861
2023-05-05T04:05:00.213Z,8.879
2023-05-05T04:06:00.355Z,8.901
2023-05-05T04:07:00.524Z,8.962
2023-05-05T04:08:00.727Z,9.029
2023-05-05T04:09:00.979Z,9.023
2023-05-05T04:10:00.152Z,9.066
2023-05-05T04:11:00.389Z,9.154
2023-05-05T04:12:00.569Z,9.173
2023-05-05T04:13:00.880Z,9.176
2023-05-05T04:14:00.205Z,9.216
2023-05-05T04:15:00.409Z,9.240
2023-05-05T04:16:00.710Z,9.314
2023-05-05T04:17:00.115Z,9.373
2023-05-05T04:18:00.395Z,9.459
2023-05-05T04:19:00.870Z,9.525
2023-05-05T04:20:01.073Z,9.608
2023-05-05T04:21:00.228Z,9.678
2023-05-05T04:22:00.416Z,9.688
2023-05-05T04:23:00.609Z,9.694
2023-05-05T04:24:00.801Z,9.758
2023-05-05T04:25:00.932Z,9.835
2023-05-05T04:26:00.301Z,9.894
2023-05-05T04:27:00.419Z,9.971
2023-05-05T04:28:00.553Z,10.022
2023-05-05T04:29:00.606Z,10.161
2023-05-05T04:30:00.806Z,10.252
2023-05-05T04:31:01.045Z,10.431
2023-05-05T04:32:00.644Z,10.535
2023-05-05T04:33:01.025Z,10.666
2023-05-05T04:35:00.481Z,10.991
2023-05-05T04:36:00.637Z,10.949
2023-05-05T04:37:00.735Z,11.034
2023-05-05T04:38:00.919Z,11.200
2023-05-05T04:40:00.419Z,11.248
2023-05-05T04:41:00.669Z,11.477
2023-05-05T04:42:00.796Z,11.606
2023-05-05T04:43:00.963Z,11.648
2023-05-05T04:44:01.121Z,11.771
2023-05-05T04:45:00.216Z,11.710
2023-05-05T04:46:00.384Z,11.993
2023-05-05T04:47:00.714Z,11.974
2023-05-05T04:48:00.976Z,11.961
2023-05-05T04:49:00.189Z,12.260
2023-05-05T04:50:00.365Z,12.399
2023-05-05T04:51:00.598Z,12.460
2023-05-05T04:52:00.800Z,12.319
2023-05-05T04:53:00.923Z,11.873
2023-05-05T04:54:01.082Z,11.672
2023-05-05T04:56:00.397Z,11.424
2023-05-05T04:57:00.672Z,11.403
2023-05-05T04:58:00.948Z,11.275
2023-05-05T04:59:00.134Z,11.250
2023-05-05T05:00:00.311Z,11.072
2023-05-05T05:01:00.586Z,11.136
2023-05-05T05:02:01.101Z,11.146
2023-05-05T05:03:00.648Z,11.258
2023-05-05T05:06:00.931Z,11.544
2023-05-05T05:07:01.780Z,11.718
2023-05-05T05:08:00.917Z,11.891
2023-05-05T05:11:00.507Z,11.905
2023-05-05T05:12:00.755Z,11.785
2023-05-05T05:13:01.148Z,11.926
2023-05-05T05:14:00.777Z,12.078
2023-05-05T05:15:00.966Z,12.252
2023-05-05T05:16:01.146Z,12.433
2023-05-05T05:18:00.623Z,12.636
2023-05-05T05:19:01.716Z,12.431
2023-05-05T05:20:00.239Z,12.642
2023-05-05T05:21:00.404Z,12.546
2023-05-05T05:22:00.696Z,12.775
2023-05-05T05:23:00.888Z,13.186
2023-05-05T05:24:01.152Z,13.357
2023-05-05T05:25:00.396Z,13.328
2023-05-05T05:26:00.549Z,13.146
2023-05-05T05:27:00.848Z,13.069
2023-05-05T05:29:00.943Z,13.018
2023-05-05T05:30:01.026Z,13.098
2023-05-05T05:31:00.163Z,13.101
2023-05-05T05:32:00.481Z,12.970
2023-05-05T05:33:01.089Z,12.925
2023-05-05T05:34:00.377Z,12.853
2023-05-05T05:35:00.656Z,12.754
2023-05-05T05:36:00.887Z,12.711
2023-05-05T05:37:01.072Z,12.754
2023-05-05T05:38:00.296Z,12.754
2023-05-05T05:39:00.407Z,12.917
2023-05-05T05:40:01.159Z,13.026
2023-05-05T05:41:00.392Z,13.096
2023-05-05T05:42:00.580Z,13.208
2023-05-05T05:43:00.712Z,13.299
2023-05-05T05:44:00.893Z,13.379
2023-05-05T05:45:01.080Z,13.504
2023-05-05T05:46:00.261Z,13.793
2023-05-05T05:47:00.756Z,13.790
2023-05-05T05:48:00.880Z,13.857
2023-05-05T05:49:01.104Z,13.584
2023-05-05T05:51:00.579Z,13.598
2023-05-05T05:52:00.756Z,13.883
2023-05-05T05:53:00.995Z,14.078
2023-05-05T05:54:01.114Z,14.102
2023-05-05T05:56:01.073Z,14.815
2023-05-05T05:57:00.175Z,14.618
2023-05-05T05:58:00.408Z,14.976
2023-05-05T05:59:00.603Z,14.946
2023-05-05T06:00:02.086Z,15.082
2023-05-05T06:01:00.410Z,15.269
2023-05-05T06:02:00.576Z,15.221
2023-05-05T06:03:01.194Z,15.483
2023-05-05T06:04:00.422Z,15.494
2023-05-05T06:05:00.818Z,15.544
2023-05-05T06:06:01.172Z,15.534
2023-05-05T06:07:00.331Z,15.387
2023-05-05T06:08:00.495Z,15.774
2023-05-05T06:09:00.659Z,15.603
2023-05-05T06:10:07.887Z,15.865
2023-05-05T06:12:01.560Z,16.065
2023-05-05T06:13:01.766Z,15.913
2023-05-05T06:14:02.147Z,16.289
2023-05-05T06:15:01.456Z,16.030
2023-05-05T06:16:01.707Z,15.670
2023-05-05T06:17:02.025Z,15.392
2023-05-05T06:18:01.444Z,15.504
2023-05-05T06:19:01.892Z,15.002
2023-05-05T06:20:02.092Z,15.315
2023-05-05T06:23:01.792Z,16.231
2023-05-05T06:24:02.041Z,16.407
2023-05-05T06:25:01.192Z,16.498
2023-05-05T06:26:01.395Z,16.612
2023-05-05T06:27:01.591Z,16.671
2023-05-05T06:28:01.761Z,16.690
2023-05-05T06:29:01.941Z,16.938
2023-05-05T06:30:02.146Z,17.307
2023-05-05T06:31:01.731Z,17.499
2023-05-05T06:32:02.184Z,17.571
2023-05-05T06:34:01.702Z,17.630
2023-05-05T06:35:01.899Z,17.750
2023-05-05T06:36:02.155Z,17.689
2023-05-05T06:37:01.423Z,17.438
2023-05-05T06:38:01.616Z,17.181
2023-05-05T06:39:01.827Z,17.010
2023-05-05T06:40:01.989Z,16.794
2023-05-05T06:41:01.173Z,16.989
2023-05-05T06:42:01.408Z,17.325
2023-05-05T06:43:01.620Z,17.363
2023-05-05T06:44:01.781Z,17.432
2023-05-05T06:45:01.980Z,17.240
2023-05-05T06:46:01.181Z,17.120
2023-05-05T06:47:01.436Z,17.024
2023-05-05T06:48:01.827Z,17.053
2023-05-05T06:49:02.055Z,17.307
2023-05-05T06:51:01.459Z,17.328
2023-05-05T06:52:02.144Z,17.438
2023-05-05T06:53:01.580Z,17.606
2023-05-05T06:54:01.795Z,17.315
2023-05-05T06:55:02.115Z,17.098
2023-05-05T06:56:01.431Z,17.347
2023-05-05T06:57:01.641Z,17.523
2023-05-05T06:58:01.858Z,17.833
2023-05-05T06:59:02.031Z,18.020
2023-05-05T07:01:01.373Z,18.340
2023-05-05T07:02:02.097Z,18.287
2023-05-05T07:03:01.266Z,18.655
2023-05-05T07:04:01.984Z,18.575
2023-05-05T07:05:01.467Z,18.581
2023-05-05T07:06:01.668Z,18.674
2023-05-05T07:07:01.887Z,18.289
2023-05-05T07:08:02.081Z,18.607
2023-05-05T07:09:01.752Z,18.610
2023-05-05T07:12:01.278Z,19.018
2023-05-05T07:13:01.458Z,19.181
2023-05-05T07:14:01.923Z,19.002
2023-05-05T07:15:06.979Z,19.037
2023-05-05T07:17:01.962Z,18.532
2023-05-05T07:18:01.237Z,18.816
2023-05-05T07:19:01.452Z,18.810
2023-05-05T07:20:01.645Z,18.885
2023-05-05T07:21:01.907Z,19.117
2023-05-05T07:22:02.386Z,19.515
2023-05-05T07:24:01.812Z,19.531
2023-05-05T07:25:02.189Z,18.938
2023-05-05T07:26:01.528Z,19.312
2023-05-05T07:27:01.960Z,19.774
2023-05-05T07:29:01.359Z,19.745
2023-05-05T07:30:01.546Z,19.715
2023-05-05T07:31:01.507Z,20.052
2023-05-05T07:32:01.697Z,19.854
2023-05-05T07:33:02.168Z,19.782
2023-05-05T07:34:01.396Z,19.774
2023-05-05T07:35:01.620Z,19.259
2023-05-05T07:36:01.835Z,19.956
2023-05-05T07:37:02.015Z,20.145
2023-05-05T07:40:01.913Z,19.713
2023-05-05T07:41:01.148Z,19.897
2023-05-05T07:42:01.564Z,19.601
2023-05-05T07:45:01.411Z,20.578
2023-05-05T07:46:01.766Z,20.754
2023-05-05T07:48:01.745Z,20.746
2023-05-05T07:50:01.710Z,20.864
2023-05-05T07:51:01.971Z,20.773
2023-05-05T07:52:01.632Z,21.264
2023-05-05T07:53:14.150Z,20.962
2023-05-05T07:55:01.788Z,21.179
2023-05-05T07:56:01.562Z,21.545
2023-05-05T07:58:01.727Z,21.796
2023-05-05T07:59:01.967Z,21.481
2023-05-05T08:00:01.135Z,21.961
2023-05-05T08:01:01.434Z,22.015
2023-05-05T08:02:01.712Z,22.193
2023-05-05T08:03:02.253Z,21.961
2023-05-05T08:05:01.811Z,22.698
2023-05-05T08:06:02.086Z,22.201
2023-05-05T08:07:01.441Z,20.690
2023-05-05T08:08:01.655Z,22.210
2023-05-05T08:09:01.944Z,22.439
2023-05-05T08:10:01.117Z,22.346
2023-05-05T08:11:01.295Z,21.868
2023-05-05T08:12:01.542Z,22.786
2023-05-05T08:13:01.877Z,22.380
2023-05-05T08:15:01.504Z,20.586
2023-05-05T08:16:01.884Z,20.818
2023-05-05T08:18:01.678Z,21.374
2023-05-05T08:19:01.938Z,21.278
2023-05-05T08:20:01.566Z,20.882
2023-05-05T08:21:01.784Z,20.914
2023-05-05T08:22:01.972Z,20.746
2023-05-05T08:23:01.165Z,20.845
2023-05-05T08:24:01.426Z,20.866
2023-05-05T08:25:01.578Z,20.562
2023-05-05T08:26:01.791Z,20.872
2023-05-05T08:27:02.027Z,21.021
2023-05-05T08:28:01.227Z,20.885
2023-05-05T08:29:01.487Z,20.912
2023-05-05T08:30:01.953Z,20.770
2023-05-05T08:31:01.100Z,20.805
2023-05-05T08:32:01.491Z,21.254
2023-05-05T08:33:01.906Z,21.275
2023-05-05T08:34:01.290Z,21.491
2023-05-05T08:35:01.515Z,21.798
2023-05-05T08:36:01.818Z,21.630
2023-05-05T08:37:01.984Z,21.900
2023-05-05T08:38:01.169Z,22.602
2023-05-05T08:39:01.420Z,22.709
2023-05-05T08:40:01.783Z,23.574
2023-05-05T08:41:01.497Z,23.788
2023-05-05T08:42:01.801Z,24.041
2023-05-05T08:44:04.746Z,22.687
2023-05-05T08:45:04.950Z,23.670
2023-05-05T08:46:04.638Z,23.878
2023-05-05T08:47:05.088Z,24.797
2023-05-05T08:49:04.601Z,24.939
2023-05-05T08:50:04.947Z,24.287
2023-05-05T08:51:05.491Z,24.268
2023-05-05T08:52:04.850Z,24.565
2023-05-05T08:53:08.008Z,24.218
2023-05-05T08:54:04.185Z,24.805
2023-05-05T08:55:04.331Z,24.963
2023-05-05T08:56:04.644Z,24.784
2023-05-05T08:57:04.840Z,24.797
2023-05-05T08:58:05.007Z,24.917
2023-05-05T08:59:04.125Z,25.310
2023-05-05T09:00:04.333Z,25.758
2023-05-05T09:01:04.885Z,25.732
2023-05-05T09:02:04.553Z,25.529
2023-05-05T09:03:05.291Z,26.519
2023-05-05T09:06:04.458Z,27.083
2023-05-05T09:07:04.788Z,26.186
2023-05-05T09:08:05.045Z,24.012
2023-05-05T09:09:04.225Z,23.523
2023-05-05T09:10:04.528Z,23.769
2023-05-05T09:11:04.923Z,23.558
2023-05-05T09:12:05.251Z,23.400
2023-05-05T09:13:04.574Z,23.422
2023-05-05T09:14:04.962Z,23.075
2023-05-05T09:15:05.324Z,23.590
2023-05-05T09:16:04.289Z,23.999
2023-05-05T09:17:04.654Z,24.060
2023-05-05T09:18:05.322Z,25.061
2023-05-05T09:19:04.629Z,25.513
2023-05-05T09:20:04.901Z,25.230
2023-05-05T09:21:04.141Z,25.625
2023-05-05T09:22:04.460Z,25.817
2023-05-05T09:23:04.787Z,25.916
2023-05-05T09:24:08.308Z,26.666
2023-05-05T09:26:04.575Z,25.101
2023-05-05T09:27:04.736Z,25.411
2023-05-05T09:28:04.983Z,26.746
2023-05-05T09:29:04.176Z,27.144
2023-05-05T09:30:04.457Z,27.507
2023-05-05T09:31:04.730Z,26.725
2023-05-05T09:32:05.054Z,26.562
2023-05-05T09:33:04.380Z,27.032
2023-05-05T09:34:04.675Z,27.897
2023-05-05T09:35:04.872Z,25.913
2023-05-05T09:37:04.559Z,26.559
2023-05-05T09:38:05.058Z,26.578
2023-05-05T09:39:04.555Z,27.024
2023-05-05T09:40:04.931Z,27.088
2023-05-05T09:42:04.809Z,28.028
2023-05-05T09:43:05.041Z,26.893
2023-05-05T09:44:04.233Z,28.311
2023-05-05T09:45:04.439Z,26.164
2023-05-05T09:46:04.885Z,27.131
2023-05-05T09:47:07.284Z,27.895
2023-05-05T09:49:04.876Z,28.600
2023-05-05T09:50:05.126Z,28.933
2023-05-05T09:52:04.939Z,29.043
2023-05-05T09:53:05.615Z,29.206
2023-05-05T09:54:04.890Z,29.163
2023-05-05T09:55:05.120Z,28.362
2023-05-05T09:57:04.500Z,29.425
2023-05-05T09:58:05.011Z,29.395
2023-05-05T09:59:04.476Z,29.617
2023-05-05T10:00:04.779Z,28.957
2023-05-05T10:02:05.018Z,27.136
2023-05-05T10:03:04.391Z,28.333
2023-05-05T10:04:04.687Z,29.014
2023-05-05T10:05:05.151Z,28.749
2023-05-05T10:07:05.113Z,28.343
2023-05-05T10:08:04.376Z,28.317
2023-05-05T10:09:04.632Z,28.840
2023-05-05T10:10:05.075Z,27.208
2023-05-05T10:12:04.656Z,26.992
2023-05-05T10:13:05.020Z,27.823
2023-05-05T10:14:04.403Z,27.903
2023-05-05T10:15:04.633Z,28.357
2023-05-05T10:16:04.989Z,29.150
2023-05-05T10:17:04.394Z,28.853
2023-05-05T10:18:09.676Z,28.482
2023-05-05T10:19:04.242Z,28.490
2023-05-05T10:20:04.462Z,28.803
2023-05-05T10:21:04.912Z,28.204
2023-05-05T10:22:04.236Z,29.144
2023-05-05T10:23:04.538Z,29.427
2023-05-05T10:24:04.803Z,27.887
2023-05-05T10:25:05.095Z,26.682
2023-05-05T10:26:04.376Z,26.901
2023-05-05T10:27:04.586Z,28.258
2023-05-05T10:28:04.740Z,26.928
2023-05-05T10:29:05.100Z,26.997
2023-05-05T10:30:04.292Z,27.539
2023-05-05T10:31:13.067Z,27.272
2023-05-05T10:34:10.622Z,28.976
2023-05-05T10:36:10.461Z,30.605
2023-05-05T10:37:10.800Z,30.399
2023-05-05T10:38:11.156Z,29.724
2023-05-05T10:39:10.602Z,28.728
2023-05-05T10:40:10.883Z,29.329
2023-05-05T10:41:10.229Z,27.553
2023-05-05T10:42:10.449Z,28.204
2023-05-05T10:43:10.786Z,28.295
2023-05-05T10:44:11.102Z,29.689
2023-05-05T10:45:10.275Z,29.986
2023-05-05T10:46:11.026Z,30.389
2023-05-05T10:47:10.596Z,30.490
2023-05-05T10:48:10.990Z,28.546
2023-05-05T10:49:12.445Z,28.146
2023-05-05T10:51:10.506Z,27.967
2023-05-05T10:53:10.195Z,29.019
2023-05-05T10:54:10.481Z,29.449
2023-05-05T10:55:11.047Z,26.156
2023-05-05T10:56:10.219Z,27.913
2023-05-05T10:57:10.567Z,28.042
2023-05-05T10:58:10.836Z,26.447
2023-05-05T10:59:15.981Z,27.582
2023-05-05T11:00:10.228Z,27.371
2023-05-05T11:01:10.603Z,26.835
2023-05-05T11:02:11.065Z,26.319
2023-05-05T11:03:10.891Z,26.960
2023-05-05T11:07:13.664Z,27.900
2023-05-05T11:08:10.583Z,27.596
2023-05-05T11:09:10.676Z,27.718
2023-05-05T11:10:11.056Z,28.359
2023-05-05T11:12:10.640Z,27.203
2023-05-05T11:13:11.022Z,27.919
2023-05-05T11:15:10.629Z,28.592
2023-05-05T11:16:11.169Z,28.282
2023-05-05T11:17:10.654Z,28.576
2023-05-05T11:18:11.030Z,28.301
2023-05-05T11:19:10.241Z,27.363
2023-05-05T11:20:10.498Z,28.130
2023-05-05T11:21:10.820Z,29.297
2023-05-05T11:22:11.028Z,29.166
2023-05-05T11:23:10.279Z,28.413
2023-05-05T11:24:10.626Z,27.847
2023-05-05T11:25:10.943Z,28.573
2023-05-05T11:26:11.077Z,29.211
2023-05-05T11:27:10.258Z,28.968
2023-05-05T11:28:10.424Z,29.662
2023-05-05T11:29:10.883Z,29.443
2023-05-05T11:30:10.660Z,29.022
2023-05-05T11:33:10.200Z,27.112
2023-05-05T11:34:10.393Z,27.275
2023-05-05T11:35:10.596Z,27.171
2023-05-05T11:36:10.751Z,28.293
2023-05-05T11:37:10.933Z,29.483
2023-05-05T11:38:11.068Z,29.508
2023-05-05T11:40:10.766Z,28.423
2023-05-05T11:41:11.091Z,27.833
2023-05-05T11:42:10.891Z,28.172
2023-05-05T11:43:10.267Z,27.494
2023-05-05T11:44:10.537Z,27.238
2023-05-05T11:45:10.674Z,27.531
2023-05-05T11:46:10.918Z,27.086
2023-05-05T11:47:10.388Z,28.098
2023-05-05T11:48:10.785Z,28.167
2023-05-05T11:49:11.048Z,28.317
2023-05-05T11:50:10.329Z,27.633
2023-05-05T11:51:10.667Z,26.928
2023-05-05T11:52:10.864Z,26.931
2023-05-05T11:53:10.091Z,27.059
2023-05-05T11:54:10.239Z,26.405
2023-05-05T11:55:10.472Z,25.654
2023-05-05T11:56:10.683Z,25.697
2023-05-05T11:57:10.945Z,24.955
2023-05-05T11:58:10.248Z,24.391
2023-05-05T11:59:10.547Z,24.869
2023-05-05T12:00:11.002Z,25.037
2023-05-05T12:01:10.492Z,24.549
2023-05-05T12:02:10.702Z,25.187
2023-05-05T12:03:11.087Z,25.256
2023-05-05T12:04:10.416Z,24.658
2023-05-05T12:05:10.281Z,25.304
2023-05-05T12:06:10.496Z,24.725
2023-05-05T12:07:10.777Z,24.631
2023-05-05T12:08:11.012Z,25.011
2023-05-05T12:09:11.173Z,25.753
2023-05-05T12:10:10.860Z,26.239
2023-05-05T12:13:13.334Z,26.461
2023-05-05T12:14:10.766Z,26.127
2023-05-05T12:15:10.333Z,26.183
2023-05-05T12:16:10.533Z,25.863
2023-05-05T12:17:11.008Z,25.975
2023-05-05T12:18:10.300Z,26.346
2023-05-05T12:19:10.622Z,26.167
2023-05-05T12:20:11.218Z,25.983
2023-05-05T12:21:11.063Z,25.830
2023-05-05T12:23:10.345Z,24.615
2023-05-05T12:24:10.511Z,25.214
2023-05-05T12:25:12.388Z,25.571
2023-05-05T12:26:10.546Z,25.809
2023-05-05T12:27:10.870Z,25.972
2023-05-05T12:28:11.130Z,25.336
2023-05-05T12:29:10.253Z,25.166
2023-05-05T12:30:10.518Z,25.550
2023-05-05T12:31:12.422Z,25.385
2023-05-05T12:33:10.440Z,23.945
2023-05-05T12:34:10.773Z,24.247
2023-05-05T12:35:11.013Z,23.967
2023-05-05T12:36:10.216Z,23.486
2023-05-05T12:37:10.818Z,23.310
2023-05-05T12:38:11.043Z,23.302
2023-05-05T12:40:10.602Z,23.344
2023-05-05T12:41:10.925Z,23.246
2023-05-05T12:42:11.111Z,23.264
2023-05-05T12:43:10.258Z,23.238
2023-05-05T12:44:10.588Z,23.211
2023-05-05T12:45:10.858Z,23.227
2023-05-05T12:46:10.195Z,22.984
2023-05-05T12:47:10.958Z,22.981
2023-05-05T12:50:11.041Z,22.634
2023-05-05T12:51:10.444Z,22.677
2023-05-05T12:52:10.724Z,23.075
2023-05-05T12:53:10.879Z,22.519
2023-05-05T12:54:11.206Z,22.768
2023-05-05T12:55:10.259Z,22.984
2023-05-05T12:56:10.523Z,22.770
2023-05-05T12:57:10.723Z,22.669
2023-05-05T12:58:10.988Z,23.019
2023-05-05T13:00:10.472Z,22.997
2023-05-05T13:01:12.473Z,22.995
2023-05-05T13:03:10.749Z,22.880
2023-05-05T13:05:10.955Z,22.987
2023-05-05T13:06:10.202Z,23.016
2023-05-05T13:07:12.080Z,22.655
2023-05-05T13:09:10.472Z,23.013
2023-05-05T13:10:10.734Z,23.157
2023-05-05T13:11:11.006Z,23.264
2023-05-05T13:12:10.088Z,23.053
2023-05-05T13:13:10.350Z,23.107
2023-05-05T13:14:10.553Z,22.869
2023-05-05T13:15:10.802Z,23.155
2023-05-05T13:16:11.053Z,23.422
2023-05-05T13:17:10.333Z,23.481
2023-05-05T13:18:10.619Z,23.286
2023-05-05T13:19:10.867Z,23.550
2023-05-05T13:20:11.064Z,23.515
2023-05-05T13:22:10.500Z,23.878
2023-05-05T13:23:10.667Z,23.681
2023-05-05T13:24:25.815Z,23.494
2023-05-05T13:26:22.249Z,23.622
2023-05-05T13:27:22.540Z,23.790
2023-05-05T13:28:22.685Z,23.638
2023-05-05T13:29:24.307Z,23.510
2023-05-05T13:31:22.491Z,23.547
2023-05-05T13:32:22.958Z,22.939
2023-05-05T13:33:22.852Z,22.893
2023-05-05T13:36:22.553Z,22.963
2023-05-05T13:37:22.809Z,23.064
2023-05-05T13:38:22.999Z,22.984
2023-05-05T13:39:22.168Z,22.538
2023-05-05T13:40:24.472Z,22.477
2023-05-05T13:41:22.953Z,22.346
2023-05-05T13:42:23.085Z,22.412
2023-05-05T13:43:22.509Z,22.340
2023-05-05T13:44:22.704Z,22.383
2023-05-05T13:45:23.133Z,22.447
2023-05-05T13:46:28.062Z,22.244
2023-05-05T13:47:22.782Z,22.242
2023-05-05T13:48:22.252Z,22.362
2023-05-05T13:49:22.436Z,22.250
2023-05-05T13:50:22.762Z,22.335
2023-05-05T13:51:22.956Z,22.346
2023-05-05T13:52:22.137Z,22.282
2023-05-05T13:53:22.416Z,22.503
2023-05-05T13:54:22.596Z,22.455
2023-05-05T13:55:22.877Z,22.244
2023-05-05T13:56:23.605Z,22.327
2023-05-05T13:57:22.812Z,22.193
2023-05-05T13:58:23.033Z,22.263
2023-05-05T14:00:22.303Z,22.412
2023-05-05T14:01:22.711Z,22.404
2023-05-05T14:02:22.992Z,22.583